Terminal Aerodrome Forecast
Issued by NWS Wilmington, OH

Current Version | Previous Version | Graphics & Text | Print | Product List | Glossary On
Versions: 1 2 3 4 5 6 7 8 9 10 11 12 13 14 15
000
FTUS41 KILN 210418 AAB
TAFILN
TAF AMD
KILN 210418Z 2104/2124 VRB03KT 2SM BR VCSH OVC004
     FM210600 01005KT 2SM BR OVC004
     FM211200 36009KT 5SM BR OVC010
     FM211500 36009KT P6SM BKN035
     FM211800 34010KT P6SM BKN150=

USA.gov is the U.S. government's official web portal to all federal, state and local government web resources and services.